Time;durP1;ratioP1;P1;durP2;ratioP2;P2;SDS_P1;SDS_P2;PMS_P1;PMS_P2;Temp;Humidity;BMP_temperature;BMP_pressure;BME280_temperature;BME280_humidity;BME280_pressure;Samples;Min_cycle;Max_cycle;Signal;HPM_P1;HPM_P2
2022/08/01 00:00:07;;;;;;;7.20;3.62;;;;;;;25.99;42.92;97952.00;4486127;31;20092;-81
2022/08/01 00:02:37;;;;;;;10.00;4.20;;;;;;;25.70;43.52;97941.91;4486038;31;20546;-81
2022/08/01 00:05:06;;;;;;;7.80;4.10;;;;;;;25.59;44.06;97941.19;4484418;32;20093;-81
2022/08/01 00:07:34;;;;;;;8.13;3.80;;;;;;;25.37;44.50;97941.81;4486005;31;20171;-81
2022/08/01 00:10:02;;;;;;;9.05;3.90;;;;;;;25.42;43.97;97941.34;4485955;31;20112;-81
2022/08/01 00:12:29;;;;;;;7.32;3.70;;;;;;;25.67;43.63;97935.91;4487468;31;20427;-81
2022/08/01 00:14:56;;;;;;;11.23;4.00;;;;;;;25.07;45.05;97946.66;4488082;31;20092;-81
2022/08/01 00:17:23;;;;;;;8.73;4.05;;;;;;;25.04;45.28;97941.69;4488293;31;20128;-81
2022/08/01 00:19:50;;;;;;;7.68;3.95;;;;;;;24.62;46.28;97933.72;4487949;31;20168;-81
2022/08/01 00:22:17;;;;;;;8.70;4.10;;;;;;;24.65;46.32;97935.22;4488278;31;20160;-81
2022/08/01 00:24:44;;;;;;;7.60;3.90;;;;;;;24.98;45.88;97936.19;4487784;31;20098;-81
2022/08/01 00:27:11;;;;;;;8.00;4.10;;;;;;;24.86;45.71;97932.19;4488071;31;20088;-81
2022/08/01 00:29:38;;;;;;;7.90;4.10;;;;;;;25.69;43.84;97938.41;4488281;31;20100;-81
2022/08/01 00:32:25;;;;;;;8.05;4.07;;;;;;;24.78;45.75;97930.34;4488083;31;20100;-81
2022/08/01 00:34:52;;;;;;;8.00;4.00;;;;;;;25.18;45.12;97934.16;4487978;31;20089;-81
2022/08/01 00:37:19;;;;;;;8.98;4.43;;;;;;;25.29;44.62;97936.50;4488084;31;20140;-81
2022/08/01 00:39:46;;;;;;;7.53;3.75;;;;;;;24.91;45.50;97932.53;4487694;31;20400;-81
2022/08/01 00:42:13;;;;;;;7.45;3.78;;;;;;;25.03;45.40;97926.03;4488214;31;20728;-81
2022/08/01 00:44:40;;;;;;;7.62;3.90;;;;;;;24.28;47.23;97930.19;4487877;31;20606;-81
2022/08/01 00:47:08;;;;;;;8.77;4.10;;;;;;;24.84;46.16;97929.69;4487666;31;20084;-81
2022/08/01 00:49:35;;;;;;;7.32;3.83;;;;;;;25.11;45.50;97933.16;4487858;31;20105;-81
2022/08/01 00:52:04;;;;;;;8.63;4.00;;;;;;;24.50;47.13;97925.25;4488144;31;20498;-81
2022/08/01 00:54:32;;;;;;;8.43;4.22;;;;;;;24.92;46.04;97932.38;4486380;32;20105;-81
2022/08/01 00:56:59;;;;;;;7.28;3.83;;;;;;;24.70;46.55;97932.94;4487878;31;20075;-81
2022/08/01 00:59:27;;;;;;;7.55;3.92;;;;;;;25.03;45.85;97933.94;4487994;31;20131;-81
2022/08/01 01:01:54;;;;;;;7.62;3.80;;;;;;;24.83;46.12;97929.88;4487695;31;20108;-81
2022/08/01 01:04:22;;;;;;;8.23;4.20;;;;;;;25.07;45.50;97936.09;4487675;31;20092;-81
2022/08/01 01:07:00;;;;;;;8.23;3.87;;;;;;;24.42;47.16;97935.75;4487456;31;20107;-81
2022/08/01 01:09:39;;;;;;;7.18;3.65;;;;;;;24.91;46.05;97936.00;4487917;31;20501;-81
2022/08/01 01:12:29;;;;;;;8.27;3.72;;;;;;;24.81;46.24;97930.03;4488031;31;20084;-81
2022/08/01 01:15:11;;;;;;;9.30;4.37;;;;;;;24.88;46.26;97935.47;4486456;32;20089;-81
2022/08/01 01:18:01;;;;;;;7.80;4.12;;;;;;;24.18;48.04;97923.19;4487793;32;20122;-81
2022/08/01 01:20:32;;;;;;;10.05;4.07;;;;;;;24.63;46.99;97916.06;4486774;32;20126;-81
2022/08/01 01:23:17;;;;;;;8.65;4.05;;;;;;;25.30;45.38;97930.22;4485078;32;20168;-81
2022/08/01 01:26:07;;;;;;;7.82;4.12;;;;;;;25.06;45.73;97928.34;4487736;31;20156;-81
2022/08/01 01:28:49;;;;;;;8.82;3.72;;;;;;;25.58;44.52;97925.50;4486458;32;20132;-81
2022/08/01 01:31:18;;;;;;;10.27;4.10;;;;;;;25.72;44.06;97918.78;4487757;31;20106;-81
2022/08/01 01:33:45;;;;;;;6.95;3.83;;;;;;;25.77;43.96;97916.47;4486484;32;20147;-81
2022/08/01 01:36:14;;;;;;;7.37;4.10;;;;;;;25.46;44.66;97919.72;4487320;31;20103;-81
2022/08/01 01:38:44;;;;;;;9.63;4.20;;;;;;;25.06;45.51;97910.69;4487810;31;20081;-81
2022/08/01 01:41:13;;;;;;;7.53;3.97;;;;;;;25.10;45.72;97908.56;4486648;32;20159;-81
2022/08/01 01:43:40;;;;;;;7.95;4.12;;;;;;;24.86;45.94;97909.25;4487274;31;20505;-81
2022/08/01 01:46:08;;;;;;;7.75;3.70;;;;;;;24.21;48.11;97904.44;4487595;31;20116;-81
2022/08/01 01:48:36;;;;;;;8.60;4.20;;;;;;;24.63;47.19;97905.53;4487677;31;20146;-81
2022/08/01 01:51:03;;;;;;;9.40;3.97;;;;;;;24.74;46.86;97910.53;4487055;31;20389;-81
2022/08/01 01:53:32;;;;;;;7.47;4.15;;;;;;;25.72;44.44;97911.66;4486405;32;20119;-81
2022/08/01 01:56:01;;;;;;;7.75;4.03;;;;;;;25.97;43.58;97901.94;4485970;32;20102;-82
2022/08/01 01:58:28;;;;;;;8.02;4.10;;;;;;;25.90;43.46;97911.50;4486422;32;20121;-81
2022/08/01 02:00:57;;;;;;;8.85;4.07;;;;;;;25.76;43.79;97907.72;4486400;32;20160;-81
2022/08/01 02:03:28;;;;;;;9.82;4.10;;;;;;;25.42;44.66;97904.34;4486059;32;20764;-81
2022/08/01 02:05:55;;;;;;;8.20;4.10;;;;;;;25.38;44.92;97898.56;4486281;32;20171;-81
2022/08/01 02:08:24;;;;;;;7.75;3.97;;;;;;;25.46;44.45;97905.69;4487639;31;20152;-81
2022/08/01 02:13:40;;;;;;;8.38;3.92;;;;;;;25.54;44.28;97901.22;4487532;31;20168;-81
2022/08/01 02:16:07;;;;;;;8.68;4.18;;;;;;;25.70;43.97;97899.63;4487317;31;20088;-81
2022/08/01 02:18:34;;;;;;;7.62;3.92;;;;;;;25.48;44.27;97901.06;4485856;32;20452;-81
2022/08/01 02:21:04;;;;;;;8.07;4.32;;;;;;;25.29;44.62;97902.16;4486217;32;20491;-81
2022/08/01 02:23:32;;;;;;;9.38;3.83;;;;;;;25.44;44.47;97902.38;4486185;32;20112;-81
2022/08/01 02:26:01;;;;;;;8.63;3.97;;;;;;;25.42;44.51;97907.00;4485732;32;20178;-81
2022/08/01 02:28:43;;;;;;;9.13;3.97;;;;;;;25.46;44.36;97914.41;4486295;32;20518;-81
2022/08/01 02:31:16;;;;;;;8.85;3.90;;;;;;;25.09;45.16;97914.81;4486930;31;20447;-81
2022/08/01 02:33:46;;;;;;;7.60;3.92;;;;;;;25.06;45.33;97905.41;4486834;31;20601;-81
2022/08/01 02:36:14;;;;;;;7.37;4.10;;;;;;;24.94;45.63;97901.38;4486128;32;20088;-81
2022/08/01 02:39:00;;;;;;;7.85;4.00;;;;;;;24.32;47.18;97898.09;4486947;31;20600;-81
2022/08/01 02:41:28;;;;;;;7.95;4.35;;;;;;;24.44;47.30;97898.66;4487324;31;20144;-81
2022/08/01 02:43:59;;;;;;;8.23;4.30;;;;;;;25.11;45.77;97907.59;4485902;32;20114;-81
2022/08/01 02:46:49;;;;;;;7.35;3.97;;;;;;;25.97;43.18;97901.12;4486662;31;20468;-81
2022/08/01 02:49:16;;;;;;;10.15;4.35;;;;;;;25.73;43.44;97908.03;4487069;31;20076;-81
2022/08/01 02:51:45;;;;;;;7.40;3.70;;;;;;;25.49;43.95;97902.69;4486020;32;20140;-81
2022/08/01 02:54:12;;;;;;;8.88;4.30;;;;;;;25.20;44.76;97906.63;4486657;31;20155;-81
2022/08/01 02:56:40;;;;;;;9.77;4.22;;;;;;;24.81;45.54;97895.72;4485872;32;20167;-81
2022/08/01 02:59:11;;;;;;;7.03;3.90;;;;;;;25.01;45.23;97907.72;4485533;32;20456;-81
2022/08/01 03:01:40;;;;;;;8.25;4.62;;;;;;;24.89;45.63;97902.84;4485944;32;20187;-81
2022/08/01 03:04:09;;;;;;;8.98;4.47;;;;;;;25.01;45.35;97909.50;4485624;32;20465;-81
2022/08/01 03:06:37;;;;;;;9.95;4.70;;;;;;;24.97;45.42;97902.84;4486628;31;20084;-81
2022/08/01 03:09:06;;;;;;;8.02;3.95;;;;;;;25.12;45.30;97905.78;4486909;31;20080;-81
2022/08/01 03:11:35;;;;;;;9.18;4.10;;;;;;;25.45;44.26;97894.28;4485648;32;20123;-81
2022/08/01 03:14:05;;;;;;;8.05;4.05;;;;;;;24.94;45.46;97909.28;4485268;32;20108;-81
2022/08/01 03:16:33;;;;;;;10.40;4.25;;;;;;;25.13;44.99;97902.97;4485563;32;20167;-81
2022/08/01 03:19:01;;;;;;;9.02;4.50;;;;;;;25.28;44.65;97898.69;4485620;32;20084;-81
2022/08/01 03:21:29;;;;;;;8.35;4.25;;;;;;;25.03;45.37;97910.19;4485239;32;20705;-81
2022/08/01 03:23:58;;;;;;;8.88;4.47;;;;;;;24.13;47.53;97899.09;4485383;32;20105;-81
2022/08/01 03:26:29;;;;;;;8.43;4.35;;;;;;;25.11;45.46;97904.13;4486494;31;20174;-82
2022/08/01 03:28:59;;;;;;;10.13;4.37;;;;;;;24.97;45.69;97906.31;4486288;31;20143;-81
2022/08/01 03:31:26;;;;;;;7.72;3.90;;;;;;;24.76;46.17;97892.72;4486509;31;20116;-81
2022/08/01 03:33:53;;;;;;;7.97;4.20;;;;;;;25.35;45.25;97898.88;4485327;32;20595;-81
2022/08/01 03:36:28;;;;;;;7.87;4.18;;;;;;;25.03;45.91;97897.81;4486061;31;20187;-81
2022/08/01 03:39:01;;;;;;;7.45;3.95;;;;;;;25.53;44.42;97898.75;4485401;32;20088;-81
2022/08/01 03:41:33;;;;;;;8.80;4.03;;;;;;;25.66;44.12;97907.84;4484924;32;20097;-81
2022/08/01 03:44:13;;;;;;;8.55;4.00;;;;;;;25.72;44.02;97908.19;4486266;31;20129;-81
2022/08/01 03:46:45;;;;;;;9.18;4.35;;;;;;;26.02;43.27;97907.53;4487166;31;20435;-81
2022/08/01 03:49:17;;;;;;;8.15;4.20;;;;;;;25.62;44.49;97913.59;4487078;32;20092;-81
2022/08/01 03:51:47;;;;;;;7.50;4.03;;;;;;;25.80;44.10;97916.12;4488522;31;20092;-81
2022/08/01 03:54:16;;;;;;;7.30;4.07;;;;;;;25.84;43.92;97922.75;4488480;31;20498;-81
2022/08/01 03:56:43;;;;;;;9.90;3.90;;;;;;;25.60;44.75;97919.06;4488103;31;20152;-81
2022/08/01 03:59:10;;;;;;;7.28;3.95;;;;;;;25.32;45.62;97915.88;4487314;32;20147;-81
2022/08/01 04:01:37;;;;;;;9.38;4.20;;;;;;;25.34;45.76;97913.91;4487139;32;20431;-81
2022/08/01 04:04:05;;;;;;;8.20;4.10;;;;;;;26.01;44.41;97915.66;4487918;31;20088;-81
2022/08/01 04:06:32;;;;;;;8.15;4.10;;;;;;;25.92;44.42;97920.09;4488366;31;20088;-81
2022/08/01 04:08:59;;;;;;;8.15;3.78;;;;;;;25.95;44.70;97917.97;4488335;31;20154;-81
2022/08/01 04:11:27;;;;;;;7.78;3.85;;;;;;;26.55;43.24;97916.75;4488014;31;20092;-81
2022/08/01 04:13:55;;;;;;;6.97;3.90;;;;;;;26.16;43.92;97916.66;4488185;31;20148;-81
2022/08/01 04:16:23;;;;;;;7.32;4.00;;;;;;;26.32;43.75;97921.91;4487960;31;20089;-81
2022/08/01 04:18:50;;;;;;;6.87;3.58;;;;;;;26.20;44.04;97926.72;4487148;32;20102;-81
2022/08/01 04:21:27;;;;;;;8.30;4.47;;;;;;;26.13;44.50;97922.25;4488331;31;20150;-81
2022/08/01 04:23:59;;;;;;;7.00;3.90;;;;;;;26.11;44.68;97924.22;4487879;31;20547;-81
2022/08/01 04:26:27;;;;;;;7.90;4.10;;;;;;;25.98;44.91;97937.13;4486948;32;20084;-81
2022/08/01 04:28:55;;;;;;;6.97;3.65;;;;;;;25.91;45.32;97932.50;4487082;32;20112;-81
2022/08/01 04:31:23;;;;;;;8.20;4.40;;;;;;;25.73;45.27;97937.09;4479831;32;221473;-81
2022/08/01 04:33:51;;;;;;;7.15;3.80;;;;;;;25.94;44.83;97940.09;4486964;32;20502;-81
2022/08/01 04:36:22;;;;;;;7.45;4.20;;;;;;;25.91;45.51;97937.78;4488145;32;20088;-81
2022/08/01 04:38:52;;;;;;;7.60;3.90;;;;;;;26.23;44.78;97931.66;4487947;31;20160;-81
2022/08/01 04:41:20;;;;;;;8.77;4.00;;;;;;;26.17;44.65;97932.34;4488202;31;20164;-81
2022/08/01 04:43:47;;;;;;;7.30;3.90;;;;;;;25.97;44.95;97933.66;4486831;32;20108;-81
2022/08/01 04:46:14;;;;;;;8.85;4.20;;;;;;;26.05;45.36;97925.75;4487667;31;20403;-81
2022/08/01 04:48:41;;;;;;;9.43;4.30;;;;;;;25.97;45.24;97930.19;4473964;32;20164;-81
2022/08/01 04:51:15;;;;;;;7.82;3.90;;;;;;;26.08;44.92;97930.69;4487452;31;20451;-81
2022/08/01 04:53:43;;;;;;;7.90;4.00;;;;;;;26.18;45.03;97931.34;4488222;31;20172;-81
2022/08/01 04:56:12;;;;;;;8.02;3.90;;;;;;;26.48;44.38;97940.44;4487987;31;20432;-81
2022/08/01 04:58:40;;;;;;;8.95;4.05;;;;;;;26.73;43.67;97933.25;4487491;31;20444;-81
2022/08/01 05:01:09;;;;;;;9.40;4.30;;;;;;;26.60;44.10;97938.25;4488030;31;20121;-81
2022/08/01 05:03:36;;;;;;;9.57;3.90;;;;;;;26.63;43.90;97932.59;4487904;31;20107;-81
2022/08/01 05:06:05;;;;;;;8.07;3.87;;;;;;;26.14;44.70;97926.53;4487587;31;20111;-81
2022/08/01 05:08:32;;;;;;;7.95;3.90;;;;;;;27.10;42.65;97937.09;4486862;32;20131;-81
2022/08/01 05:10:59;;;;;;;7.60;3.72;;;;;;;27.32;42.23;97936.31;4487926;31;20119;-81
2022/08/01 05:13:26;;;;;;;9.15;3.67;;;;;;;28.04;41.32;97935.19;4487537;31;20144;-81
2022/08/01 05:15:53;;;;;;;7.00;3.78;;;;;;;29.41;38.63;97932.06;4487827;31;20088;-81
2022/08/01 05:18:20;;;;;;;8.15;3.53;;;;;;;30.88;35.73;97938.47;4487864;31;20159;-81
2022/08/01 05:20:54;;;;;;;6.93;3.30;;;;;;;31.66;33.96;97931.81;4487647;31;20092;-81
2022/08/01 05:23:21;;;;;;;7.30;3.42;;;;;;;33.30;31.71;97939.09;4487842;31;20097;-81
2022/08/01 05:26:08;;;;;;;;;;;;;;;34.36;29.31;97944.59;4487885;31;20495;-81
2022/08/01 05:28:35;;;;;;;6.72;3.28;;;;;;;35.02;28.54;97948.50;4487619;31;19987;-81
2022/08/01 05:31:03;;;;;;;5.75;3.05;;;;;;;34.97;28.41;97940.31;4487862;31;20111;-81
2022/08/01 05:33:30;;;;;;;6.78;3.08;;;;;;;35.13;28.64;97945.06;4487435;31;20110;-81
2022/08/01 05:35:57;;;;;;;5.50;3.10;;;;;;;35.68;27.97;97947.66;4487645;31;20147;-81
2022/08/01 05:38:24;;;;;;;6.05;3.22;;;;;;;36.57;26.24;97943.16;4487827;31;20573;-81
2022/08/01 05:40:51;;;;;;;7.30;3.50;;;;;;;37.76;24.79;97942.69;4487348;31;20107;-81
2022/08/01 05:43:18;;;;;;;6.97;3.28;;;;;;;38.59;23.89;97947.28;4487759;31;20554;-81
2022/08/01 05:45:45;;;;;;;6.47;3.12;;;;;;;39.06;23.30;97946.84;4487602;31;20171;-81
2022/08/01 05:48:12;;;;;;;7.35;3.17;;;;;;;38.62;23.41;97946.78;4487421;31;20127;-81
2022/08/01 05:50:40;;;;;;;7.18;3.45;;;;;;;37.59;24.72;97946.13;4487469;31;20432;-81
2022/08/01 05:53:07;;;;;;;6.80;3.03;;;;;;;36.13;26.35;97941.84;4487669;32;20144;-81
2022/08/01 05:55:34;;;;;;;5.80;3.35;;;;;;;36.10;26.41;97942.31;4487083;31;20098;-81
2022/08/01 05:58:02;;;;;;;7.15;3.40;;;;;;;34.43;28.55;97947.22;4487538;31;20093;-81
2022/08/01 06:00:29;;;;;;;6.53;3.30;;;;;;;34.35;29.48;97951.00;4483360;31;20112;-81
2022/08/01 06:02:56;;;;;;;6.65;3.42;;;;;;;34.14;30.12;97946.03;4486233;31;20089;-81
2022/08/01 06:05:23;;;;;;;7.62;3.40;;;;;;;33.59;30.76;97935.03;4486355;31;20163;-80
2022/08/01 06:07:50;;;;;;;7.70;3.85;;;;;;;33.64;30.95;97949.41;4486136;31;20111;-81
2022/08/01 06:10:19;;;;;;;7.28;3.58;;;;;;;33.21;30.66;97935.81;4485302;31;20450;-79
2022/08/01 06:12:49;;;;;;;5.87;3.60;;;;;;;31.44;33.13;97942.84;4486866;32;20475;-79
2022/08/01 06:15:16;;;;;;;8.05;3.50;;;;;;;31.35;33.74;97939.53;4486815;31;20159;-80
2022/08/01 06:17:43;;;;;;;7.50;3.35;;;;;;;31.65;32.64;97948.84;4485907;31;20100;-80
2022/08/01 06:20:10;;;;;;;6.30;3.22;;;;;;;30.20;35.43;97946.19;4486414;31;20085;-80
2022/08/01 06:22:37;;;;;;;6.85;3.53;;;;;;;29.55;36.54;97941.84;4486300;31;20099;-80
2022/08/01 06:25:07;;;;;;;7.85;3.53;;;;;;;28.46;39.00;97935.50;4486313;31;20132;-80
2022/08/01 06:27:35;;;;;;;6.50;3.50;;;;;;;28.29;39.76;97946.47;4486814;31;20080;-82
2022/08/01 06:30:03;;;;;;;7.15;3.87;;;;;;;28.83;39.23;97949.72;4486559;31;20355;-80
2022/08/01 06:32:30;;;;;;;6.12;3.45;;;;;;;29.53;37.65;97959.00;4486725;31;20446;-80
2022/08/01 06:34:57;;;;;;;7.12;3.53;;;;;;;30.06;36.83;97951.56;4485205;32;20131;-81
2022/08/01 06:37:29;;;;;;;7.60;3.60;;;;;;;30.25;36.21;97953.59;4485986;31;20188;-80
2022/08/01 06:40:01;;;;;;;9.15;3.65;;;;;;;29.77;37.51;97955.16;4484253;32;20128;-82
2022/08/01 06:42:28;;;;;;;7.75;3.37;;;;;;;29.13;38.07;97947.06;4486324;31;20151;-80
2022/08/01 06:44:55;;;;;;;8.63;3.55;;;;;;;29.87;36.80;97950.34;4484881;32;20110;-84
2022/08/01 06:47:22;;;;;;;6.25;3.30;;;;;;;29.67;37.13;97950.19;4486494;31;20097;-84
2022/08/01 06:49:49;;;;;;;8.80;3.75;;;;;;;30.20;36.83;97950.69;4485019;31;20096;-84
2022/08/01 06:52:16;;;;;;;5.57;3.22;;;;;;;30.56;35.37;97947.88;4485924;31;20147;-83
2022/08/01 06:54:43;;;;;;;6.70;3.28;;;;;;;29.17;37.66;97943.84;4485249;31;20178;-84
2022/08/01 06:57:10;;;;;;;9.57;3.62;;;;;;;29.80;37.02;97945.00;4485821;31;20100;-83
2022/08/01 06:59:37;;;;;;;6.40;3.53;;;;;;;29.77;37.19;97944.53;4485179;31;20096;-85
2022/08/01 07:02:04;;;;;;;8.63;3.60;;;;;;;30.18;36.13;97952.72;4486227;31;20430;-84
2022/08/01 07:04:32;;;;;;;7.18;3.40;;;;;;;30.84;35.03;97949.72;4485941;31;20443;-84
2022/08/01 07:06:59;;;;;;;7.10;3.60;;;;;;;31.19;34.48;97953.19;4485962;31;20155;-84
2022/08/01 07:09:26;;;;;;;7.03;3.15;;;;;;;30.55;35.53;97951.56;4485201;31;20171;-85
2022/08/01 07:11:55;;;;;;;7.05;3.53;;;;;;;30.38;35.99;97951.03;4485916;31;20106;-85
2022/08/01 07:14:23;;;;;;;6.75;3.30;;;;;;;30.67;35.72;97958.03;4486002;31;20103;-83
2022/08/01 07:16:50;;;;;;;8.75;3.40;;;;;;;29.81;36.49;97951.13;4486075;31;20491;-84
2022/08/01 07:19:17;;;;;;;6.37;3.35;;;;;;;30.31;35.98;97957.34;4484738;31;20103;-84
2022/08/01 07:21:44;;;;;;;7.32;3.50;;;;;;;29.00;38.39;97948.53;4487746;31;20084;-84
2022/08/01 07:24:15;;;;;;;7.62;3.40;;;;;;;29.99;37.19;97948.00;4487840;31;20088;-84
2022/08/01 07:26:48;;;;;;;6.45;3.20;;;;;;;31.05;35.07;97939.81;4487341;31;20123;-84
2022/08/01 07:29:26;;;;;;;6.00;3.15;;;;;;;31.58;34.25;97948.03;4485667;32;20745;-84
2022/08/01 07:31:54;;;;;;;8.15;3.70;;;;;;;33.14;31.21;97950.25;4487803;31;20164;-85
2022/08/01 07:34:22;;;;;;;5.85;2.97;;;;;;;32.34;32.07;97937.06;4487515;31;20177;-84
2022/08/01 07:36:50;;;;;;;5.70;3.10;;;;;;;31.80;32.63;97937.22;4487791;31;20076;-84
2022/08/01 07:39:17;;;;;;;6.00;3.15;;;;;;;31.57;32.78;97946.34;4486646;31;20084;-84
2022/08/01 07:41:44;;;;;;;5.53;3.03;;;;;;;31.10;33.10;97939.19;4487500;31;20181;-83
2022/08/01 07:44:30;;;;;;;;;;;;;;;31.01;33.38;97935.06;4488023;31;20144;-83
2022/08/01 07:46:57;;;;;;;6.93;3.08;;;;;;;32.62;30.62;97944.81;4487297;31;20030;-83
2022/08/01 07:49:24;;;;;;;5.80;3.05;;;;;;;32.79;30.26;97942.53;4486616;31;20183;-83
2022/08/01 07:51:52;;;;;;;6.87;3.08;;;;;;;33.46;29.24;97945.81;4487176;31;20096;-82
2022/08/01 07:54:31;;;;;;;6.40;3.28;;;;;;;33.27;29.52;97945.66;4487186;32;20439;-82
2022/08/01 07:57:00;;;;;;;4.97;2.78;;;;;;;33.20;29.39;97954.75;4487262;31;20103;-82
2022/08/01 07:59:27;;;;;;;5.95;2.60;;;;;;;32.05;30.95;97938.25;4486969;31;20115;-83
2022/08/01 08:01:54;;;;;;;5.97;3.20;;;;;;;32.48;30.06;97945.88;4487365;31;20161;-82
2022/08/01 08:04:21;;;;;;;6.15;3.20;;;;;;;33.21;29.57;97945.69;4487440;31;20092;-82
2022/08/01 08:06:48;;;;;;;6.30;3.12;;;;;;;33.27;29.14;97947.50;4487551;31;21009;-83
2022/08/01 08:09:15;;;;;;;5.05;2.80;;;;;;;32.30;30.03;97949.16;4486643;31;20144;-83
2022/08/01 08:11:43;;;;;;;5.22;2.92;;;;;;;33.15;28.96;97946.53;4487533;31;20139;-81
2022/08/01 08:14:17;;;;;;;9.57;3.00;;;;;;;32.57;30.08;97954.50;4487723;31;20107;-83
2022/08/01 08:16:45;;;;;;;4.65;2.70;;;;;;;33.07;29.36;97945.75;4487132;31;20084;-82
2022/08/01 08:19:12;;;;;;;7.10;3.00;;;;;;;34.45;27.27;97955.84;4486465;32;20122;-82
2022/08/01 08:21:40;;;;;;;5.32;2.62;;;;;;;34.58;26.30;97954.94;4487029;31;20168;-81
2022/08/01 08:24:20;;;;;;;4.45;2.53;;;;;;;34.53;26.18;97952.06;4487143;31;20201;-81
2022/08/01 08:27:00;;;;;;;6.45;2.70;;;;;;;34.33;26.56;97945.00;4487039;31;20080;-82
2022/08/01 08:29:29;;;;;;;10.43;2.72;;;;;;;34.26;26.41;97960.34;4484832;32;20108;-83
2022/08/01 08:31:57;;;;;;;5.97;2.87;;;;;;;33.10;28.26;97947.19;4486873;31;20454;-82
2022/08/01 08:34:25;;;;;;;6.35;3.00;;;;;;;32.06;30.10;97950.56;4487559;31;20096;-83
2022/08/01 08:36:54;;;;;;;4.78;2.65;;;;;;;33.61;28.33;97955.19;4487060;31;20392;-81
2022/08/01 08:39:22;;;;;;;4.55;2.80;;;;;;;35.04;26.31;97949.91;4486617;31;20092;-80
2022/08/01 08:41:49;;;;;;;5.85;2.90;;;;;;;34.77;26.41;97948.53;4487200;31;20100;-81
2022/08/01 08:44:17;;;;;;;5.87;3.08;;;;;;;34.90;26.28;97948.44;4486974;31;20479;-81
2022/08/01 08:46:47;;;;;;;4.55;2.53;;;;;;;34.79;25.68;97951.81;4487147;31;20088;-81
2022/08/01 08:49:20;;;;;;;6.95;2.80;;;;;;;33.93;26.55;97955.25;4485599;32;20168;-81
2022/08/01 08:51:49;;;;;;;6.55;2.90;;;;;;;32.78;28.49;97959.59;4486972;31;20140;-81
2022/08/01 08:54:20;;;;;;;5.05;2.80;;;;;;;33.71;27.28;97956.56;4487465;31;20096;-81
2022/08/01 08:56:58;;;;;;;5.72;2.78;;;;;;;34.22;27.08;97959.13;4485309;32;20241;-81
2022/08/01 08:59:25;;;;;;;6.53;2.78;;;;;;;33.67;27.60;97965.03;4486346;31;20092;-81
2022/08/01 09:01:52;;;;;;;7.05;2.97;;;;;;;33.74;27.92;97967.69;4485822;32;20163;-81
2022/08/01 09:04:24;;;;;;;5.87;3.03;;;;;;;33.47;28.21;97963.50;4487101;31;20108;-81
2022/08/01 09:06:53;;;;;;;5.05;2.83;;;;;;;33.08;29.08;97970.62;4487026;31;20156;-81
2022/08/01 09:09:21;;;;;;;5.22;2.80;;;;;;;34.61;27.06;97967.88;4486649;31;20122;-81
2022/08/01 09:11:49;;;;;;;5.80;2.70;;;;;;;35.32;25.61;97961.97;4487363;31;20137;-80
2022/08/01 09:14:26;;;;;;;6.40;3.17;;;;;;;34.32;26.61;97959.44;4487575;32;20107;-81
2022/08/01 09:17:19;;;;;;;7.00;2.65;;;;;;;33.54;27.54;97957.09;4487420;31;20100;-82
2022/08/01 09:19:52;;;;;;;6.15;2.75;;;;;;;33.66;28.09;97960.72;4484655;31;20152;-83
2022/08/01 09:22:24;;;;;;;5.85;2.83;;;;;;;34.12;27.42;97964.97;4487174;31;20157;-81
2022/08/01 09:24:58;;;;;;;5.22;2.90;;;;;;;34.01;27.38;97965.66;4486849;31;20167;-81
2022/08/01 09:27:25;;;;;;;6.10;3.05;;;;;;;34.84;26.90;97964.53;4486903;31;20087;-81
2022/08/01 09:29:53;;;;;;;4.62;2.67;;;;;;;34.62;26.71;97964.16;4485297;31;20498;-81
2022/08/01 09:32:29;;;;;;;5.30;2.85;;;;;;;35.29;25.34;97959.72;4483848;32;20096;-82
2022/08/01 09:35:34;;;;;;;7.72;2.83;;;;;;;35.81;25.21;97960.06;4485149;32;20157;-82
2022/08/01 09:38:17;;;;;;;4.43;2.90;;;;;;;34.62;26.88;97956.94;4485267;31;20462;-81
2022/08/01 09:40:49;;;;;;;5.18;2.92;;;;;;;34.75;27.09;97958.66;4485152;31;20434;-81
2022/08/01 09:43:18;;;;;;;5.70;3.20;;;;;;;34.42;27.82;97957.13;4485302;31;20111;-80
2022/08/01 09:45:45;;;;;;;6.57;3.35;;;;;;;34.35;27.89;97974.25;4486968;31;20165;-81
2022/08/01 09:48:19;;;;;;;5.97;3.08;;;;;;;34.30;28.33;97974.91;4487366;31;20088;-81
2022/08/01 09:50:53;;;;;;;6.90;3.30;;;;;;;33.72;28.83;97969.75;4487273;31;20092;-80
2022/08/01 09:53:21;;;;;;;6.20;3.00;;;;;;;33.04;30.01;97962.19;4487346;31;20144;-82
2022/08/01 09:56:09;;;;;;;5.43;3.17;;;;;;;32.67;30.38;97973.59;4487405;32;20474;-82
2022/08/01 09:58:56;;;;;;;4.97;2.90;;;;;;;32.67;30.78;97978.94;4487510;31;20133;-80
2022/08/01 10:01:41;;;;;;;7.15;3.20;;;;;;;33.37;29.23;97966.63;4486161;32;20145;-83
2022/08/01 10:04:16;;;;;;;5.97;3.20;;;;;;;32.39;30.54;97979.97;4487424;31;20140;-82
2022/08/01 10:06:55;;;;;;;6.72;3.30;;;;;;;32.85;30.15;97967.59;4487237;31;20110;-82
2022/08/01 10:09:33;;;;;;;7.07;2.95;;;;;;;32.33;30.65;97970.12;4487259;31;20159;-80
2022/08/01 10:12:06;;;;;;;7.22;3.15;;;;;;;32.35;30.05;97973.41;4474230;32;20159;-84
2022/08/01 10:14:36;;;;;;;6.85;3.42;;;;;;;32.42;30.61;97976.06;4486059;32;20489;-83
2022/08/01 10:17:03;;;;;;;6.45;2.90;;;;;;;33.00;29.27;97976.22;4485879;32;20107;-80
2022/08/01 10:19:32;;;;;;;5.93;3.10;;;;;;;32.83;29.56;97970.47;4473147;32;20084;-81
2022/08/01 10:22:00;;;;;;;5.32;3.10;;;;;;;33.38;29.08;97965.59;4473003;32;20121;-80
2022/08/01 10:24:29;;;;;;;5.87;3.03;;;;;;;33.37;28.89;97969.28;4473093;32;20105;-80
2022/08/01 10:27:08;;;;;;;6.53;2.83;;;;;;;33.19;28.19;97971.84;4487081;31;20472;-81
2022/08/01 10:30:07;;;;;;;5.12;2.60;;;;;;;33.24;27.59;97967.47;4485965;32;20157;-81
2022/08/01 10:32:51;;;;;;;6.70;3.20;;;;;;;33.57;27.45;97972.69;4487252;31;20093;-82
2022/08/01 10:35:21;;;;;;;4.25;2.50;;;;;;;32.24;29.22;97972.16;4486775;31;20510;-82
2022/08/01 10:38:08;;;;;;;4.82;2.60;;;;;;;33.26;27.58;97961.91;4487297;31;20155;-82
2022/08/01 10:40:40;;;;;;;5.78;2.60;;;;;;;33.93;26.87;97964.09;4487231;31;20430;-82
2022/08/01 10:43:09;;;;;;;5.10;2.50;;;;;;;33.33;26.89;97962.72;4485550;32;20616;-82
2022/08/01 10:45:36;;;;;;;9.48;2.78;;;;;;;34.02;25.46;97963.81;4486908;31;20608;-82
2022/08/01 10:48:16;;;;;;;5.57;2.60;;;;;;;34.16;26.13;97963.50;4485945;32;20423;-82
2022/08/01 10:50:49;;;;;;;5.50;2.75;;;;;;;34.46;26.19;97963.69;4485362;32;20161;-82
2022/08/01 10:53:20;;;;;;;6.40;2.70;;;;;;;34.62;25.64;97954.25;4487026;31;20144;-82
2022/08/01 10:55:56;;;;;;;6.80;3.00;;;;;;;34.70;25.56;97943.25;4485530;32;20165;-82
2022/08/01 10:58:37;;;;;;;4.35;2.45;;;;;;;35.83;24.08;97944.53;4486612;31;20093;-82
2022/08/01 11:01:26;;;;;;;7.40;2.58;;;;;;;35.72;24.30;97942.66;4485895;32;20533;-84
2022/08/01 11:04:01;;;;;;;6.05;2.60;;;;;;;36.43;24.40;97944.47;4486611;31;20127;-83
2022/08/01 11:06:32;;;;;;;4.37;2.70;;;;;;;36.26;23.39;97941.63;4486554;31;20100;-82
2022/08/01 11:09:05;;;;;;;4.93;2.80;;;;;;;35.79;23.80;97936.16;4486682;31;20147;-82
2022/08/01 11:12:04;;;;;;;4.47;2.35;;;;;;;35.10;25.23;97929.44;4486474;31;20099;-82
2022/08/01 11:14:33;;;;;;;5.28;2.70;;;;;;;35.00;24.90;97918.44;4486718;32;20109;-82
2022/08/01 11:17:32;;;;;;;3.78;2.30;;;;;;;33.30;26.81;97917.69;4485663;32;20105;-81
2022/08/01 11:20:18;;;;;;;5.43;2.30;;;;;;;31.94;28.90;97920.19;4486713;32;20104;-82
2022/08/01 11:22:57;;;;;;;5.75;2.47;;;;;;;31.33;29.67;97907.72;4486649;31;20076;-82
2022/08/01 11:25:25;;;;;;;4.03;2.33;;;;;;;30.60;30.88;97903.03;4486127;31;20420;-82
2022/08/01 11:28:17;;;;;;;6.62;2.65;;;;;;;31.07;30.94;97904.97;4486247;31;20106;-82
2022/08/01 11:31:07;;;;;;;5.18;2.80;;;;;;;32.78;28.34;97914.16;4486586;31;20103;-83
2022/08/01 11:33:41;;;;;;;4.40;2.37;;;;;;;31.68;29.67;97918.25;4486043;31;20110;-83
2022/08/01 11:36:12;;;;;;;3.58;2.20;;;;;;;30.03;32.20;97922.69;4486062;31;20148;-82
2022/08/01 11:38:46;;;;;;;5.53;2.70;;;;;;;30.49;31.75;97910.56;4486009;31;20379;-84
2022/08/01 11:41:14;;;;;;;4.18;2.50;;;;;;;31.08;30.96;97903.94;4486325;31;20135;-81
2022/08/01 11:44:07;;;;;;;4.55;2.15;;;;;;;31.77;30.42;97906.41;4486204;31;20080;-82
2022/08/01 11:46:56;;;;;;;4.72;2.50;;;;;;;31.65;29.38;97910.69;4485943;31;20152;-83
2022/08/01 11:49:25;;;;;;;5.35;2.65;;;;;;;32.09;29.37;97909.31;4486148;31;20148;-84
2022/08/01 11:52:08;;;;;;;6.50;2.80;;;;;;;32.40;29.52;97906.84;4484922;32;20100;-83
2022/08/01 11:54:39;;;;;;;4.50;2.60;;;;;;;32.63;29.37;97913.56;4471666;32;20198;-84